Time;durP1;ratioP1;P1;durP2;ratioP2;P2;SDS_P1;SDS_P2;PMS_P1;PMS_P2;Temp;Humidity;BMP_temperature;BMP_pressure;BME280_temperature;BME280_humidity;BME280_pressure;Samples;Min_cycle;Max_cycle;Signal;HPM_P1;HPM_P2
2022/10/19 00:01:35;;;;;;;15.50;4.18;;;;;;;12.99;75.72;102193.91;5110595;28;20063;-72
2022/10/19 00:04:02;;;;;;;9.32;3.45;;;;;;;13.06;75.42;102201.50;5108395;27;20043;-73
2022/10/19 00:06:31;;;;;;;12.82;3.60;;;;;;;12.95;75.40;102198.41;5108767;27;20055;-73
2022/10/19 00:09:02;;;;;;;7.53;3.20;;;;;;;13.06;74.96;102203.28;5108956;28;20048;-73
2022/10/19 00:11:29;;;;;;;13.60;3.95;;;;;;;13.06;75.45;102204.13;5130896;27;20043;-73
2022/10/19 00:13:58;;;;;;;13.13;3.70;;;;;;;12.91;75.81;102204.72;5121236;27;20407;-73
2022/10/19 00:16:26;;;;;;;11.60;3.17;;;;;;;12.63;76.93;102197.00;5109473;27;20054;-73
2022/10/19 00:18:56;;;;;;;8.35;3.20;;;;;;;12.56;77.33;102211.28;5109943;27;20050;-73
2022/10/19 00:21:22;;;;;;;8.82;3.38;;;;;;;12.41;77.44;102203.97;5110510;28;20047;-73
2022/10/19 00:23:49;;;;;;;11.10;3.72;;;;;;;12.20;79.19;102202.09;5108654;28;20404;-73
2022/10/19 00:26:17;;;;;;;12.02;4.57;;;;;;;12.37;78.43;102198.88;5109506;28;20044;-73
2022/10/19 00:28:44;;;;;;;7.63;3.63;;;;;;;12.34;78.40;102199.00;5110247;28;20498;-73
2022/10/19 00:31:13;;;;;;;11.07;3.80;;;;;;;12.11;79.11;102203.28;5109297;28;20392;-73
2022/10/19 00:33:40;;;;;;;12.20;4.00;;;;;;;12.23;78.71;102206.41;5108475;28;20055;-73
2022/10/19 00:36:14;;;;;;;10.93;3.72;;;;;;;11.96;79.94;102200.31;5094947;28;20044;-73
2022/10/19 00:38:42;;;;;;;14.13;4.30;;;;;;;11.90;80.76;102204.00;5091626;28;20048;-73
2022/10/19 00:41:08;;;;;;;18.27;4.20;;;;;;;12.03;79.70;102200.06;5109151;28;20036;-74
2022/10/19 00:46:34;;;;;;;12.50;4.72;;;;;;;12.17;78.84;102200.44;5128244;27;20152;-64
2022/10/19 00:49:06;;;;;;;17.67;4.32;;;;;;;11.97;80.51;102196.78;5098567;27;20043;-65
2022/10/19 00:51:34;;;;;;;8.35;3.80;;;;;;;12.15;79.89;102198.78;5086507;28;20047;-66
2022/10/19 00:54:03;;;;;;;8.55;3.90;;;;;;;12.43;79.32;102199.50;5084230;28;20039;-65
2022/10/19 00:56:29;;;;;;;10.65;3.97;;;;;;;12.43;79.16;102201.28;5124479;27;20047;-65
2022/10/19 00:58:56;;;;;;;12.80;4.25;;;;;;;12.62;78.23;102211.06;5144410;27;20486;-65
2022/10/19 01:01:26;;;;;;;15.73;3.85;;;;;;;12.71;77.90;102204.63;5143491;27;20051;-65
2022/10/19 01:03:54;;;;;;;13.00;3.55;;;;;;;12.64;78.26;102209.22;5140812;27;20395;-65
2022/10/19 01:06:23;;;;;;;9.90;3.30;;;;;;;12.80;77.85;102208.66;5143693;27;20410;-65
2022/10/19 01:08:49;;;;;;;10.45;3.70;;;;;;;12.74;78.11;102209.78;5144187;27;20047;-65
2022/10/19 01:11:28;;;;;;;9.98;3.38;;;;;;;12.77;77.92;102208.78;5143983;27;20053;-65
2022/10/19 01:14:05;;;;;;;7.43;2.80;;;;;;;12.64;78.60;102206.59;5145516;27;20354;-65
2022/10/19 01:16:40;;;;;;;11.30;3.05;;;;;;;12.89;77.42;102203.06;5144849;27;20041;-65
2022/10/19 01:19:24;;;;;;;9.32;3.05;;;;;;;13.02;76.72;102202.53;5144166;27;20599;-65
2022/10/19 01:21:58;;;;;;;10.05;3.25;;;;;;;12.93;77.13;102202.91;5143269;27;20050;-65
2022/10/19 01:24:54;;;;;;;12.80;3.03;;;;;;;13.03;76.77;102200.75;5140362;27;20062;-65
2022/10/19 01:27:49;;;;;;;8.52;2.70;;;;;;;13.05;76.50;102212.06;5143581;27;20543;-65
2022/10/19 01:30:25;;;;;;;10.02;2.90;;;;;;;13.07;76.15;102195.31;5144218;27;20055;-65
2022/10/19 01:33:02;;;;;;;10.98;2.90;;;;;;;13.08;75.84;102188.28;5134576;27;20074;-65
2022/10/19 01:35:35;;;;;;;8.75;2.70;;;;;;;13.08;75.59;102189.13;5144447;27;20043;-65
2022/10/19 01:38:17;;;;;;;13.43;3.63;;;;;;;12.98;76.13;102186.91;5144882;27;20043;-65
2022/10/19 01:40:53;;;;;;;15.77;3.28;;;;;;;13.07;75.57;102187.41;5143011;27;20039;-66
2022/10/19 01:43:26;;;;;;;7.00;2.88;;;;;;;13.00;75.98;102178.06;5143794;27;20509;-65
2022/10/19 01:46:02;;;;;;;8.93;2.70;;;;;;;13.13;75.10;102168.75;5143268;27;20050;-65
2022/10/19 01:48:35;;;;;;;13.85;2.83;;;;;;;13.19;74.56;102172.09;5143294;27;20517;-65
2022/10/19 01:51:05;;;;;;;14.60;2.90;;;;;;;13.00;75.21;102174.56;5143448;27;20497;-65
2022/10/19 01:53:46;;;;;;;5.80;2.30;;;;;;;13.14;74.49;102165.22;5142691;27;20651;-65
2022/10/19 01:56:15;;;;;;;10.45;2.40;;;;;;;13.18;74.77;102171.22;5138690;27;20395;-65
2022/10/19 01:58:43;;;;;;;8.88;2.38;;;;;;;13.32;74.05;102170.66;5129150;27;20054;-65
2022/10/19 02:01:15;;;;;;;4.95;2.30;;;;;;;13.31;74.03;102180.34;5129414;27;20043;-65
2022/10/19 02:03:42;;;;;;;10.83;2.20;;;;;;;13.40;73.55;102165.94;5130179;27;20046;-65
2022/10/19 02:06:10;;;;;;;5.90;2.28;;;;;;;13.57;72.77;102166.97;5127707;27;20046;-65
2022/10/19 02:08:41;;;;;;;7.03;2.28;;;;;;;13.50;72.08;102170.78;5128754;27;20512;-65
2022/10/19 02:11:08;;;;;;;8.02;2.45;;;;;;;13.50;72.63;102164.66;5129209;27;20055;-65
2022/10/19 02:13:36;;;;;;;7.90;2.25;;;;;;;13.61;72.69;102173.81;5129762;27;20054;-65
2022/10/19 02:16:09;;;;;;;10.05;2.47;;;;;;;13.62;72.67;102165.00;5129219;27;20047;-65
2022/10/19 02:18:41;;;;;;;5.85;2.40;;;;;;;13.66;72.80;102168.38;5129245;27;20366;-65
2022/10/19 02:21:08;;;;;;;;;;;;;;;13.57;72.66;102160.81;5129515;27;20040;-65
2022/10/19 02:23:35;;;;;;;10.75;2.58;;;;;;;13.51;72.47;102159.31;5127102;27;20026;-65
2022/10/19 02:26:02;;;;;;;10.00;2.90;;;;;;;13.50;72.12;102157.59;5129312;27;20263;-65
2022/10/19 02:28:30;;;;;;;11.18;2.53;;;;;;;13.44;72.46;102170.19;5129730;27;20051;-66
2022/10/19 02:30:57;;;;;;;6.72;2.53;;;;;;;13.59;72.54;102165.13;5128906;27;20387;-66
2022/10/19 02:33:23;;;;;;;8.40;2.17;;;;;;;13.53;72.62;102162.72;5127415;27;20421;-66
2022/10/19 02:35:51;;;;;;;10.05;2.35;;;;;;;13.61;72.43;102168.56;5129416;27;20050;-66
2022/10/19 02:38:21;;;;;;;6.97;2.83;;;;;;;13.59;72.56;102172.19;5128626;27;20050;-66
2022/10/19 02:40:55;;;;;;;13.55;3.42;;;;;;;13.74;71.57;102178.59;5128264;27;20045;-66
2022/10/19 02:43:24;;;;;;;13.10;2.28;;;;;;;13.84;71.21;102179.91;5118338;27;20454;-66
2022/10/19 02:45:55;;;;;;;6.88;2.28;;;;;;;13.91;71.38;102181.34;5108128;28;20044;-66
2022/10/19 02:48:25;;;;;;;11.63;2.75;;;;;;;13.97;71.01;102181.94;5108498;27;20051;-66
2022/10/19 02:50:52;;;;;;;6.93;2.50;;;;;;;13.88;70.70;102178.88;5108123;27;20131;-66
2022/10/19 02:53:19;;;;;;;7.03;2.25;;;;;;;14.01;70.59;102180.03;5109278;27;20075;-66
2022/10/19 02:55:48;;;;;;;9.95;2.38;;;;;;;13.40;72.29;102179.97;5125235;27;20455;-66
2022/10/19 02:58:14;;;;;;;18.52;3.40;;;;;;;13.64;71.82;102178.97;5110494;27;20115;-66
2022/10/19 03:00:41;;;;;;;16.25;2.40;;;;;;;13.70;71.77;102179.63;5126226;27;20414;-66
2022/10/19 03:03:07;;;;;;;5.00;2.20;;;;;;;13.74;72.42;102175.97;5128654;27;20047;-66
2022/10/19 03:05:33;;;;;;;6.57;2.47;;;;;;;13.71;72.37;102176.09;5127451;27;20051;-66
2022/10/19 03:08:01;;;;;;;8.85;2.50;;;;;;;13.78;72.04;102174.91;5127056;27;20046;-66
2022/10/19 03:10:28;;;;;;;8.25;2.13;;;;;;;13.92;71.87;102180.44;5127568;27;20051;-66
2022/10/19 03:12:57;;;;;;;8.27;2.25;;;;;;;14.01;71.06;102169.50;5126478;27;20040;-66
2022/10/19 03:15:27;;;;;;;9.23;2.20;;;;;;;14.06;70.91;102170.16;5127756;27;20050;-66
2022/10/19 03:17:54;;;;;;;9.73;2.05;;;;;;;13.82;71.62;102179.13;5124782;27;20047;-66
2022/10/19 03:20:20;;;;;;;6.60;1.88;;;;;;;13.95;71.54;102182.94;5126344;27;20047;-66
2022/10/19 03:22:47;;;;;;;5.40;1.98;;;;;;;14.22;70.92;102184.41;5127927;27;20035;-66
2022/10/19 03:25:15;;;;;;;13.93;2.63;;;;;;;14.08;71.31;102190.25;5128491;27;20406;-66
2022/10/19 03:27:41;;;;;;;6.85;2.10;;;;;;;13.87;72.02;102188.53;5127304;27;20063;-66
2022/10/19 03:30:08;;;;;;;8.40;2.53;;;;;;;13.74;73.01;102194.41;5125101;27;20425;-66
2022/10/19 03:32:34;;;;;;;6.35;1.80;;;;;;;13.94;71.95;102192.63;5127835;27;20051;-66
2022/10/19 03:35:01;;;;;;;11.27;2.38;;;;;;;14.26;71.20;102190.41;5126852;27;20513;-66
2022/10/19 03:37:27;;;;;;;6.43;2.45;;;;;;;14.09;71.55;102196.41;5126115;27;20414;-66
2022/10/19 03:39:54;;;;;;;8.82;2.28;;;;;;;14.20;71.57;102195.91;5127055;27;20043;-66
2022/10/19 03:42:21;;;;;;;7.18;2.17;;;;;;;14.28;70.92;102194.69;5127075;27;20071;-66
2022/10/19 03:44:48;;;;;;;8.10;2.42;;;;;;;14.33;71.10;102200.63;5126320;27;20505;-66
2022/10/19 03:47:14;;;;;;;10.25;1.98;;;;;;;14.35;70.23;102197.94;5128124;27;20521;-66
2022/10/19 03:49:42;;;;;;;7.43;2.55;;;;;;;14.01;72.07;102209.03;5126426;27;20498;-66
2022/10/19 03:52:09;;;;;;;7.97;2.10;;;;;;;14.43;71.00;102207.22;5125552;27;20051;-66
2022/10/19 03:54:35;;;;;;;9.20;2.13;;;;;;;14.48;70.65;102207.88;5128050;27;20088;-66
2022/10/19 03:57:02;;;;;;;9.23;2.10;;;;;;;14.23;71.66;102212.47;5126184;27;20046;-66
2022/10/19 03:59:29;;;;;;;4.82;1.77;;;;;;;14.26;71.78;102222.06;5125673;27;20046;-66
2022/10/19 04:01:56;;;;;;;9.80;2.42;;;;;;;14.10;72.19;102219.22;5127234;27;20050;-66
2022/10/19 04:04:22;;;;;;;10.13;1.98;;;;;;;14.33;71.46;102215.59;5126950;27;20096;-66
2022/10/19 04:06:52;;;;;;;10.25;2.08;;;;;;;14.57;70.35;102220.66;5125135;27;20047;-66
2022/10/19 04:09:20;;;;;;;7.32;2.45;;;;;;;14.49;70.61;102216.63;5128748;27;20073;-66
2022/10/19 04:11:47;;;;;;;8.27;2.30;;;;;;;14.29;71.56;102225.41;5126565;27;20035;-66
2022/10/19 04:14:16;;;;;;;4.90;1.85;;;;;;;14.26;72.02;102222.91;5125526;27;20050;-66
2022/10/19 04:16:44;;;;;;;12.40;2.13;;;;;;;14.25;71.81;102228.25;5127365;27;20046;-66
2022/10/19 04:19:14;;;;;;;5.80;1.90;;;;;;;14.27;71.89;102232.53;5112939;27;20031;-66
2022/10/19 04:21:42;;;;;;;5.68;1.80;;;;;;;14.28;72.06;102225.47;5126447;27;20039;-66
2022/10/19 04:24:11;;;;;;;6.55;2.08;;;;;;;14.33;71.99;102227.00;5126384;27;20447;-66
2022/10/19 04:26:39;;;;;;;6.38;2.40;;;;;;;14.39;71.36;102232.03;5127728;27;20055;-66
2022/10/19 04:29:06;;;;;;;6.95;1.90;;;;;;;14.56;70.61;102228.63;5125795;27;20589;-66
2022/10/19 04:31:33;;;;;;;7.25;1.90;;;;;;;13.87;73.11;102224.59;5122346;27;20054;-66
2022/10/19 04:34:01;;;;;;;5.35;1.70;;;;;;;14.13;72.64;102240.19;5127694;27;20390;-66
2022/10/19 04:36:27;;;;;;;5.95;2.00;;;;;;;14.21;72.27;102232.81;5126965;27;20050;-66
2022/10/19 04:38:54;;;;;;;8.20;1.85;;;;;;;14.38;71.51;102235.59;5124693;27;20039;-66
2022/10/19 04:41:21;;;;;;;10.20;1.80;;;;;;;14.47;71.68;102245.75;5126043;27;20073;-66
2022/10/19 04:43:49;;;;;;;7.97;1.88;;;;;;;14.28;72.03;102238.66;5117669;27;20047;-66
2022/10/19 04:46:17;;;;;;;5.10;1.60;;;;;;;14.24;72.19;102239.72;5124183;27;20051;-66
2022/10/19 04:48:44;;;;;;;12.60;2.08;;;;;;;14.11;72.52;102236.78;5124279;27;20074;-67
2022/10/19 04:51:13;;;;;;;7.40;1.90;;;;;;;13.89;73.80;102241.22;5107532;27;20040;-67
2022/10/19 04:53:40;;;;;;;10.18;1.80;;;;;;;13.99;73.23;102239.91;5105467;28;20517;-67
2022/10/19 04:56:09;;;;;;;5.80;2.22;;;;;;;13.65;74.18;102240.44;5106806;28;20047;-67
2022/10/19 04:58:35;;;;;;;6.25;1.83;;;;;;;13.82;73.82;102242.41;5111472;27;20054;-67
2022/10/19 05:01:08;;;;;;;8.32;3.38;;;;;;;13.75;73.87;102240.91;5124340;27;20046;-67
2022/10/19 05:03:34;;;;;;;7.88;1.60;;;;;;;13.51;75.41;102238.38;5125085;27;20062;-67
2022/10/19 05:06:01;;;;;;;8.40;2.13;;;;;;;13.87;73.49;102243.91;5126928;27;20092;-67
2022/10/19 05:08:28;;;;;;;8.27;2.25;;;;;;;13.92;73.41;102241.97;5125415;27;20058;-67
2022/10/19 05:10:55;;;;;;;8.40;1.60;;;;;;;13.73;73.53;102240.13;5125151;27;20039;-67
2022/10/19 05:13:21;;;;;;;6.22;2.20;;;;;;;13.65;74.79;102232.53;5126646;27;20430;-67
2022/10/19 05:15:55;;;;;;;4.90;1.90;;;;;;;13.44;75.35;102236.91;5125850;27;20035;-67
2022/10/19 05:18:22;;;;;;;7.85;1.95;;;;;;;13.80;74.06;102231.06;5124509;27;20046;-67
2022/10/19 05:20:48;;;;;;;6.72;2.20;;;;;;;13.76;74.80;102235.59;5124111;27;20050;-67
2022/10/19 05:23:15;;;;;;;8.68;1.95;;;;;;;13.74;74.23;102231.31;5125674;27;20035;-67
2022/10/19 05:25:42;;;;;;;4.57;1.50;;;;;;;13.39;75.14;102245.91;5125318;27;20058;-67
2022/10/19 05:28:09;;;;;;;6.22;1.73;;;;;;;13.70;73.88;102237.63;5126559;27;20043;-67
2022/10/19 05:30:36;;;;;;;5.53;1.70;;;;;;;13.52;74.45;102232.19;5125734;27;20453;-68
2022/10/19 05:33:02;;;;;;;8.00;1.73;;;;;;;13.69;74.11;102235.91;5125247;27;20069;-67
2022/10/19 05:35:29;;;;;;;6.50;1.60;;;;;;;13.72;73.82;102241.91;5131099;27;20043;-67
2022/10/19 05:37:55;;;;;;;8.65;2.17;;;;;;;13.82;73.37;102245.88;5125040;27;20047;-67
2022/10/19 05:40:21;;;;;;;5.78;1.73;;;;;;;13.96;73.06;102245.31;5128341;27;20058;-67
2022/10/19 05:42:49;;;;;;;7.55;1.95;;;;;;;13.95;72.56;102247.09;5129345;27;20043;-67
2022/10/19 05:45:16;;;;;;;6.90;2.08;;;;;;;13.74;73.76;102247.13;5128686;27;20141;-67
2022/10/19 05:47:42;;;;;;;6.65;1.83;;;;;;;14.01;72.74;102245.97;5127981;27;20050;-66
2022/10/19 05:50:09;;;;;;;5.28;1.75;;;;;;;14.13;72.09;102250.72;5130542;27;20096;-66
2022/10/19 05:52:35;;;;;;;8.25;1.90;;;;;;;13.93;72.75;102248.94;5128312;27;20043;-66
2022/10/19 05:55:02;;;;;;;5.15;1.80;;;;;;;13.79;71.59;102245.16;5128433;27;20391;-66
2022/10/19 05:57:28;;;;;;;7.72;2.22;;;;;;;13.74;71.73;102253.28;5129426;27;20050;-66
2022/10/19 05:59:57;;;;;;;6.00;2.20;;;;;;;13.89;70.95;102251.78;5128409;27;20050;-66
2022/10/19 06:02:23;;;;;;;5.05;2.35;;;;;;;14.01;70.31;102256.53;5128163;27;20126;-66
2022/10/19 06:04:50;;;;;;;5.20;2.10;;;;;;;14.01;69.85;102261.78;5127655;27;20051;-66
2022/10/19 06:07:16;;;;;;;9.07;1.85;;;;;;;14.04;68.87;102253.78;5127831;27;20043;-66
2022/10/19 06:09:44;;;;;;;7.18;2.15;;;;;;;13.96;69.39;102259.38;5129210;27;20047;-67
2022/10/19 06:12:10;;;;;;;4.80;1.52;;;;;;;13.94;69.12;102260.34;5130034;27;20054;-67
2022/10/19 06:14:37;;;;;;;4.75;2.30;;;;;;;14.12;68.69;102263.06;5127101;27;20046;-67
2022/10/19 06:17:05;;;;;;;6.55;1.70;;;;;;;13.94;69.92;102265.59;5129648;27;20047;-67
2022/10/19 06:19:32;;;;;;;4.22;1.63;;;;;;;14.10;69.83;102264.06;5112997;27;20050;-67
2022/10/19 06:21:58;;;;;;;4.28;1.83;;;;;;;14.05;70.53;102266.03;5126686;27;20491;-67
2022/10/19 06:24:24;;;;;;;7.75;1.80;;;;;;;14.04;70.47;102266.97;5129454;27;20051;-67
2022/10/19 06:26:51;;;;;;;9.20;1.70;;;;;;;14.27;70.12;102273.88;5128791;27;20047;-67
2022/10/19 06:29:17;;;;;;;2.33;1.33;;;;;;;14.29;70.40;102274.69;5127197;27;20051;-67
2022/10/19 06:31:45;;;;;;;7.47;1.40;;;;;;;14.55;69.36;102283.25;5128119;27;20600;-67
2022/10/19 06:34:12;;;;;;;7.35;1.77;;;;;;;14.54;69.47;102284.16;5128540;27;20042;-67
2022/10/19 06:36:39;;;;;;;4.82;1.55;;;;;;;14.54;70.02;102288.56;5128662;27;20069;-67
2022/10/19 06:39:05;;;;;;;8.05;1.85;;;;;;;14.56;70.32;102298.13;5125916;27;20055;-67
2022/10/19 06:41:33;;;;;;;6.32;1.85;;;;;;;14.44;70.94;102300.47;5129411;27;20043;-67
2022/10/19 06:43:59;;;;;;;6.75;2.00;;;;;;;14.57;70.76;102291.94;5128743;27;20126;-67
2022/10/19 06:46:27;;;;;;;9.40;1.77;;;;;;;14.41;71.40;102287.41;5128323;27;20395;-67
2022/10/19 06:48:55;;;;;;;8.27;2.42;;;;;;;14.44;72.00;102298.69;5128537;27;20375;-67
2022/10/19 06:51:24;;;;;;;10.85;2.80;;;;;;;14.40;71.76;102297.09;5107337;28;20707;-67
2022/10/19 06:53:50;;;;;;;4.43;2.30;;;;;;;14.63;71.09;102292.59;5108169;28;20043;-68
2022/10/19 06:56:17;;;;;;;6.47;2.40;;;;;;;14.47;72.24;102295.91;5127939;27;20434;-67
2022/10/19 06:58:44;;;;;;;7.28;2.83;;;;;;;14.62;70.82;102304.94;5126440;27;20039;-67
2022/10/19 07:01:12;;;;;;;5.18;2.10;;;;;;;14.65;70.97;102298.66;5131980;27;20049;-68
2022/10/19 07:03:40;;;;;;;10.23;2.05;;;;;;;14.65;70.42;102296.00;5149625;27;20038;-68
2022/10/19 07:06:08;;;;;;;6.60;1.90;;;;;;;14.63;70.71;102299.56;5131171;27;20066;-67
2022/10/19 07:08:38;;;;;;;8.65;2.38;;;;;;;14.54;70.77;102301.78;5126666;27;20043;-68
2022/10/19 07:11:07;;;;;;;10.55;2.50;;;;;;;14.29;71.93;102298.44;5124255;27;20043;-68
2022/10/19 07:13:34;;;;;;;5.78;2.40;;;;;;;14.45;71.70;102296.88;5127468;27;20066;-68
2022/10/19 07:16:04;;;;;;;9.48;2.70;;;;;;;14.46;71.61;102303.88;5126964;27;20434;-67
2022/10/19 07:18:31;;;;;;;9.30;2.05;;;;;;;14.15;70.08;102299.03;5127958;27;20092;-67
2022/10/19 07:20:59;;;;;;;10.02;2.17;;;;;;;14.28;68.85;102302.00;5127758;27;20047;-67
2022/10/19 07:23:26;;;;;;;4.18;1.52;;;;;;;14.32;67.82;102307.06;5128326;27;20043;-67
2022/10/19 07:26:00;;;;;;;3.28;1.30;;;;;;;14.28;68.16;102307.28;5125653;27;20546;-67
2022/10/19 07:28:27;;;;;;;6.40;2.20;;;;;;;14.41;67.44;102311.16;5122176;27;20043;-67
2022/10/19 07:30:53;;;;;;;6.75;2.08;;;;;;;14.49;67.30;102304.59;5126505;27;20047;-67
2022/10/19 07:33:20;;;;;;;7.32;2.75;;;;;;;14.46;67.25;102315.28;5124363;27;20047;-67
2022/10/19 07:35:47;;;;;;;8.68;2.30;;;;;;;14.57;66.14;102320.09;5127081;27;20510;-67
2022/10/19 07:38:14;;;;;;;10.25;2.30;;;;;;;14.70;65.12;102313.38;5127737;27;20043;-67
2022/10/19 07:40:40;;;;;;;7.45;2.05;;;;;;;14.54;65.64;102321.09;5127374;27;20058;-67
2022/10/19 07:43:08;;;;;;;4.53;1.60;;;;;;;14.48;65.19;102321.38;5125976;27;20050;-68
2022/10/19 07:45:34;;;;;;;8.63;1.85;;;;;;;14.71;64.30;102314.25;5127118;27;20440;-66
2022/10/19 07:48:01;;;;;;;6.82;1.30;;;;;;;14.90;64.06;102325.69;5126674;27;20042;-67
2022/10/19 07:50:27;;;;;;;4.90;1.27;;;;;;;14.85;64.97;102328.56;5126057;27;20043;-67
2022/10/19 07:52:55;;;;;;;9.07;1.30;;;;;;;14.71;65.17;102330.91;5128245;27;20046;-67
2022/10/19 07:55:21;;;;;;;10.07;1.45;;;;;;;14.87;64.80;102321.41;5125328;27;20039;-68
2022/10/19 07:57:48;;;;;;;5.38;1.23;;;;;;;14.95;65.51;102327.22;5127327;27;20046;-67
2022/10/19 08:00:16;;;;;;;6.93;1.23;;;;;;;15.11;64.75;102330.03;5127440;27;20038;-67
2022/10/19 08:02:43;;;;;;;4.97;1.38;;;;;;;15.18;65.15;102327.97;5124965;27;20046;-68
2022/10/19 08:05:10;;;;;;;9.02;1.30;;;;;;;15.32;64.28;102339.63;5125693;27;20562;-68
2022/10/19 08:07:37;;;;;;;9.40;1.73;;;;;;;15.51;64.15;102337.88;5127373;27;20096;-68
2022/10/19 08:10:04;;;;;;;2.60;1.10;;;;;;;15.39;64.55;102338.41;5125843;27;20500;-67
2022/10/19 08:12:30;;;;;;;7.68;1.27;;;;;;;15.37;64.42;102339.41;5127201;27;20049;-68
2022/10/19 08:14:57;;;;;;;11.23;1.85;;;;;;;15.26;65.14;102347.81;5127653;27;20160;-68
2022/10/19 08:17:24;;;;;;;7.35;1.52;;;;;;;15.23;65.06;102345.31;5126991;27;20055;-68
2022/10/19 08:19:51;;;;;;;6.25;1.33;;;;;;;15.26;64.27;102342.50;5126314;27;20065;-68
2022/10/19 08:22:17;;;;;;;8.55;1.50;;;;;;;15.39;64.82;102343.69;5126618;27;20640;-68
2022/10/19 08:24:44;;;;;;;3.60;1.42;;;;;;;15.43;64.45;102345.25;5125144;27;20514;-68
2022/10/19 08:27:10;;;;;;;7.82;1.35;;;;;;;15.38;62.68;102349.03;5127140;27;20038;-67
2022/10/19 08:29:37;;;;;;;6.00;1.25;;;;;;;15.33;63.25;102353.69;5126474;27;20047;-68
2022/10/19 08:32:03;;;;;;;4.97;1.08;;;;;;;15.40;63.04;102349.84;5126346;27;20046;-68
2022/10/19 08:34:32;;;;;;;9.25;1.40;;;;;;;15.50;63.18;102357.28;5127200;27;20483;-68
2022/10/19 08:37:00;;;;;;;9.13;1.25;;;;;;;15.65;63.32;102342.50;5126507;27;20507;-68
2022/10/19 08:39:27;;;;;;;12.02;1.92;;;;;;;15.63;62.30;102348.78;5124897;27;20511;-67
2022/10/19 08:42:00;;;;;;;8.73;1.70;;;;;;;15.48;61.34;102352.97;5127724;27;20692;-68
2022/10/19 08:44:47;;;;;;;3.45;1.35;;;;;;;15.62;59.24;102355.88;5126563;27;20051;-68
2022/10/19 08:47:27;;;;;;;6.22;1.55;;;;;;;15.94;59.80;102355.19;5126892;27;20055;-68
2022/10/19 08:49:57;;;;;;;10.55;1.92;;;;;;;15.71;60.99;102367.78;5124698;27;20409;-67
2022/10/19 08:52:27;;;;;;;3.47;1.23;;;;;;;15.72;60.55;102357.13;5127559;27;20520;-68
2022/10/19 08:54:56;;;;;;;5.65;1.02;;;;;;;15.80;59.89;102359.41;5126204;27;20047;-68
2022/10/19 08:57:35;;;;;;;6.53;1.48;;;;;;;15.62;58.00;102355.88;5125625;27;20486;-68
2022/10/19 09:00:08;;;;;;;2.92;1.10;;;;;;;15.50;58.16;102354.66;5124347;27;20043;-67
2022/10/19 09:02:49;;;;;;;2.60;0.93;;;;;;;15.30;58.50;102365.22;5124761;27;20050;-67
2022/10/19 09:05:23;;;;;;;2.35;0.88;;;;;;;15.33;57.27;102358.97;5115960;27;20051;-67
2022/10/19 09:07:53;;;;;;;3.95;0.77;;;;;;;15.57;58.47;102369.28;5107665;28;20039;-67
2022/10/19 09:10:25;;;;;;;7.85;1.30;;;;;;;15.81;57.20;102358.50;5127299;27;20501;-67
2022/10/19 09:12:56;;;;;;;9.23;1.52;;;;;;;15.94;58.15;102363.13;5131694;27;20050;-67
2022/10/19 09:15:27;;;;;;;7.50;0.77;;;;;;;16.16;64.00;102362.91;5131674;27;20050;-67
2022/10/19 09:17:54;;;;;;;3.33;0.80;;;;;;;16.24;58.01;102360.75;5126293;27;20426;-67
2022/10/19 09:20:26;;;;;;;3.88;1.02;;;;;;;16.29;56.13;102357.88;5130613;27;20047;-67
2022/10/19 09:23:03;;;;;;;5.00;1.03;;;;;;;16.21;55.49;102360.06;5130542;27;20069;-67
2022/10/19 09:25:33;;;;;;;4.32;1.10;;;;;;;16.28;56.32;102351.72;5130589;27;20509;-67
2022/10/19 09:28:12;;;;;;;2.83;0.90;;;;;;;16.29;54.08;102352.59;5140692;27;20051;-67
2022/10/19 09:30:40;;;;;;;3.22;0.70;;;;;;;16.70;53.94;102359.34;5125699;27;20036;-67
2022/10/19 09:33:15;;;;;;;4.70;0.95;;;;;;;17.24;49.30;102358.22;5109696;27;20035;-67
2022/10/19 09:35:46;;;;;;;7.05;1.20;;;;;;;17.47;50.56;102356.97;5121834;27;20541;-67
2022/10/19 09:38:16;;;;;;;5.50;1.05;;;;;;;17.67;50.86;102353.22;5128228;27;20497;-67
2022/10/19 09:40:43;;;;;;;4.15;0.80;;;;;;;17.83;50.40;102359.38;5128969;27;20091;-66
2022/10/19 09:43:19;;;;;;;4.30;0.77;;;;;;;18.09;50.94;102357.91;5130438;27;20455;-66
2022/10/19 09:45:51;;;;;;;4.82;1.00;;;;;;;18.24;49.39;102359.66;5146304;27;20123;-66
2022/10/19 09:48:26;;;;;;;4.40;0.98;;;;;;;18.06;49.79;102360.75;5129648;27;20050;-66
2022/10/19 09:50:57;;;;;;;6.07;1.10;;;;;;;18.34;49.45;102359.03;5129481;27;20395;-66
2022/10/19 09:53:25;;;;;;;6.28;0.82;;;;;;;18.30;48.24;102354.84;5128641;27;20054;-67
2022/10/19 09:55:58;;;;;;;2.47;0.68;;;;;;;18.65;48.74;102365.25;5129555;27;20043;-66
2022/10/19 09:58:26;;;;;;;4.70;0.70;;;;;;;18.70;48.84;102356.03;5128883;27;20042;-67
2022/10/19 10:00:54;;;;;;;2.30;0.80;;;;;;;18.56;48.16;102355.16;5128686;27;20051;-67
2022/10/19 10:03:26;;;;;;;2.80;0.90;;;;;;;18.32;49.17;102358.28;5129700;27;20067;-67
2022/10/19 10:05:53;;;;;;;;;;;;;;;18.11;48.08;102351.56;5130586;27;20127;-67
2022/10/19 10:08:25;;;;;;;3.38;1.10;;;;;;;18.24;50.79;102344.59;5129091;27;19923;-67
2022/10/19 10:10:59;;;;;;;5.93;1.00;;;;;;;18.14;49.65;102348.75;5129071;27;20391;-67
2022/10/19 10:13:27;;;;;;;7.22;1.13;;;;;;;18.42;47.56;102347.97;5129670;27;20074;-67
2022/10/19 10:15:57;;;;;;;2.97;0.98;;;;;;;18.40;47.04;102348.06;5128483;27;20609;-67
2022/10/19 10:18:25;;;;;;;2.88;0.80;;;;;;;18.31;48.42;102343.28;5128606;27;20054;-67
2022/10/19 10:21:01;;;;;;;4.10;0.90;;;;;;;18.20;47.49;102347.53;5128008;27;20053;-67
2022/10/19 10:23:31;;;;;;;6.03;1.20;;;;;;;18.46;46.60;102344.19;5129263;27;20054;-67
2022/10/19 10:25:58;;;;;;;4.97;1.10;;;;;;;18.76;49.16;102349.50;5128752;27;20043;-67
2022/10/19 10:28:27;;;;;;;5.22;0.80;;;;;;;18.99;48.79;102351.63;5130116;27;20495;-67
2022/10/19 10:30:59;;;;;;;3.25;0.60;;;;;;;19.20;47.15;102352.94;5125520;27;20035;-67
2022/10/19 10:33:28;;;;;;;3.53;0.73;;;;;;;19.39;45.98;102357.97;5128542;27;20413;-67
2022/10/19 10:35:57;;;;;;;2.67;1.08;;;;;;;19.39;47.27;102352.66;5128527;27;20043;-66
2022/10/19 10:38:26;;;;;;;3.95;1.10;;;;;;;19.38;46.61;102359.78;5130151;27;20047;-66
2022/10/19 10:40:59;;;;;;;6.22;1.20;;;;;;;19.58;45.84;102352.38;5130057;27;20043;-67
2022/10/19 10:43:30;;;;;;;2.78;0.70;;;;;;;19.68;44.73;102354.34;5128489;27;20509;-66
2022/10/19 10:46:03;;;;;;;3.20;0.75;;;;;;;19.57;46.27;102350.66;5128063;27;20061;-66
2022/10/19 10:48:35;;;;;;;3.80;0.80;;;;;;;19.71;43.42;102348.81;5127509;27;20050;-67
2022/10/19 10:51:02;;;;;;;6.70;1.17;;;;;;;19.96;42.37;102344.53;5128674;27;20501;-66
2022/10/19 10:53:33;;;;;;;1.20;0.60;;;;;;;20.12;43.11;102337.25;5128136;27;20043;-66
2022/10/19 10:56:01;;;;;;;3.77;0.87;;;;;;;19.71;43.49;102347.97;5127077;27;20035;-66
2022/10/19 10:58:36;;;;;;;2.65;0.80;;;;;;;19.19;46.62;102345.91;5126987;27;20043;-66
2022/10/19 11:01:07;;;;;;;6.15;1.08;;;;;;;19.73;48.50;102344.22;5127854;27;20418;-66
2022/10/19 11:03:37;;;;;;;4.38;0.85;;;;;;;19.46;47.58;102338.03;5127043;27;20078;-66
2022/10/19 11:06:04;;;;;;;2.70;0.88;;;;;;;19.50;47.97;102333.38;5127849;27;20047;-67
2022/10/19 11:08:35;;;;;;;4.43;0.90;;;;;;;19.73;44.79;102338.91;5122640;27;20514;-67
2022/10/19 11:11:12;;;;;;;2.27;0.63;;;;;;;20.08;48.15;102331.28;5122228;27;20046;-67
2022/10/19 11:13:48;;;;;;;2.03;0.68;;;;;;;19.76;43.33;102345.88;5128121;27;20043;-67
2022/10/19 11:16:17;;;;;;;4.45;1.00;;;;;;;19.53;45.55;102342.00;5128139;27;20494;-67
2022/10/19 11:18:47;;;;;;;4.07;0.98;;;;;;;19.49;42.97;102347.63;5127058;27;20467;-67
2022/10/19 11:21:19;;;;;;;2.95;0.80;;;;;;;19.54;45.23;102343.72;5125703;27;20422;-67
2022/10/19 11:24:01;;;;;;;4.22;1.00;;;;;;;19.81;43.54;102341.94;5127012;27;20039;-67
2022/10/19 11:26:41;;;;;;;4.93;1.02;;;;;;;19.73;41.35;102336.25;5125289;27;20039;-67
2022/10/19 11:29:23;;;;;;;2.58;0.88;;;;;;;19.66;43.72;102336.78;5123832;27;20036;-66
2022/10/19 11:31:53;;;;;;;3.47;1.20;;;;;;;19.84;45.66;102332.91;5107197;27;20043;-66
2022/10/19 11:34:37;;;;;;;3.95;0.73;;;;;;;19.76;46.47;102337.88;5116702;27;20494;-66
2022/10/19 11:37:15;;;;;;;5.10;0.90;;;;;;;19.86;42.87;102336.31;5117911;27;20070;-66